Time;durP1;ratioP1;P1;durP2;ratioP2;P2;SDS_P1;SDS_P2;PMS_P1;PMS_P2;Temp;Humidity;BMP_temperature;BMP_pressure;BME280_temperature;BME280_humidity;BME280_pressure;Samples;Min_cycle;Max_cycle;Signal;HPM_P1;HPM_P2
2021/12/05 00:24:27;;;;;;;;;0.00;0.00;;;;;;;;5039654;28;45994;-76
2021/12/05 00:26:57;;;;;;;;;0.00;0.00;;;;;;;;5032614;28;45427;-76
2021/12/05 00:32:00;;;;;;;;;0.50;0.25;;;;;;;;5029708;28;45419;-76
2021/12/05 00:47:40;;;;;;;;;0.50;0.50;;;;;;;;5039943;28;46008;-76
2021/12/05 00:55:43;;;;;;;;;4.00;4.00;;;;;;;;5042048;28;45462;-76
2021/12/05 01:14:28;;;;;;;;;3.00;0.00;;;;;;;;4998774;28;45487;-75
2021/12/05 01:16:54;;;;;;;;;0.00;0.00;;;;;;;;5019949;28;47162;-76
2021/12/05 01:19:21;;;;;;;;;0.50;0.00;;;;;;;;5004121;28;45493;-76
2021/12/05 01:21:48;;;;;;;;;0.00;0.00;;;;;;;;4994259;28;45526;-75
2021/12/05 01:24:29;;;;;;;;;0.00;0.00;;;;;;;;5004782;28;45439;-75
2021/12/05 01:27:14;;;;;;;;;0.00;0.00;;;;;;;;4994501;28;45459;-75
2021/12/05 02:30:51;;;;;;;;;0.00;0.00;;;;;;;;5012214;28;45492;-76
2021/12/05 02:33:18;;;;;;;;;0.00;0.00;;;;;;;;5006510;28;45401;-75
2021/12/05 02:36:18;;;;;;;;;0.00;0.00;;;;;;;;4992670;28;45444;-75
2021/12/05 02:39:08;;;;;;;;;0.00;0.00;;;;;;;;4992431;28;45517;-75
2021/12/05 02:41:37;;;;;;;;;0.25;0.25;;;;;;;;4989710;28;45356;-76
2021/12/05 02:44:11;;;;;;;;;1.00;0.00;;;;;;;;4988904;28;46038;-75
2021/12/05 02:46:39;;;;;;;;;0.00;0.00;;;;;;;;5010004;28;45491;-75
2021/12/05 02:49:09;;;;;;;;;0.00;0.00;;;;;;;;5029535;28;45543;-75
2021/12/05 02:51:34;;;;;;;;;0.00;0.00;;;;;;;;5042292;28;45442;-76
2021/12/05 02:54:15;;;;;;;;;1.25;0.25;;;;;;;;5044177;28;45343;-75
2021/12/05 02:56:44;;;;;;;;;0.25;0.00;;;;;;;;5037972;28;45529;-75
2021/12/05 02:59:24;;;;;;;;;0.00;0.00;;;;;;;;5035167;28;45381;-75
2021/12/05 03:01:58;;;;;;;;;0.00;0.00;;;;;;;;5027051;28;46121;-75
2021/12/05 03:04:28;;;;;;;;;0.00;0.00;;;;;;;;5034716;28;45801;-75
2021/12/05 03:06:55;;;;;;;;;0.00;0.00;;;;;;;;5032902;28;45316;-76
2021/12/05 03:09:21;;;;;;;;;0.00;0.00;;;;;;;;5035468;28;45402;-75
2021/12/05 03:11:47;;;;;;;;;0.25;0.25;;;;;;;;5036142;28;46556;-75
2021/12/05 03:14:12;;;;;;;;;0.00;0.00;;;;;;;;5038674;28;45982;-76
2021/12/05 03:16:39;;;;;;;;;0.00;0.00;;;;;;;;5024230;28;45438;-76
2021/12/05 03:19:06;;;;;;;;;0.00;0.00;;;;;;;;5039885;28;45330;-76
2021/12/05 03:21:32;;;;;;;;;0.00;0.00;;;;;;;;5032865;28;45379;-75
2021/12/05 03:23:58;;;;;;;;;0.00;0.00;;;;;;;;5040378;28;45446;-75
2021/12/05 03:26:25;;;;;;;;;1.00;0.00;;;;;;;;5029821;28;45528;-75
2021/12/05 03:28:53;;;;;;;;;0.00;0.00;;;;;;;;5036031;28;45320;-76
2021/12/05 03:31:18;;;;;;;;;0.00;0.00;;;;;;;;5033438;28;46147;-75
2021/12/05 03:33:44;;;;;;;;;0.00;0.00;;;;;;;;5031415;28;45462;-75
2021/12/05 03:36:09;;;;;;;;;1.00;0.00;;;;;;;;5043433;28;45370;-75
2021/12/05 03:38:35;;;;;;;;;1.25;0.00;;;;;;;;5046731;28;45367;-76
2021/12/05 03:41:00;;;;;;;;;0.00;0.00;;;;;;;;5048762;28;45458;-75
2021/12/05 03:43:26;;;;;;;;;1.00;0.00;;;;;;;;5051235;28;45402;-76
2021/12/05 03:45:52;;;;;;;;;0.00;0.00;;;;;;;;5036098;28;45601;-75
2021/12/05 03:48:18;;;;;;;;;0.00;0.00;;;;;;;;5039176;28;46368;-76
2021/12/05 03:50:45;;;;;;;;;0.00;0.00;;;;;;;;5045666;28;46223;-76
2021/12/05 03:53:12;;;;;;;;;0.00;0.00;;;;;;;;5046348;28;45514;-76
2021/12/05 03:55:38;;;;;;;;;0.00;0.00;;;;;;;;5039464;28;45518;-75
2021/12/05 03:58:04;;;;;;;;;0.00;0.00;;;;;;;;5024829;28;45435;-75
2021/12/05 04:00:31;;;;;;;;;0.00;0.00;;;;;;;;5041248;28;46105;-75
2021/12/05 04:02:58;;;;;;;;;0.00;0.00;;;;;;;;5039584;28;45323;-75
2021/12/05 04:05:24;;;;;;;;;1.00;1.00;;;;;;;;5040479;28;45358;-75
2021/12/05 04:07:49;;;;;;;;;1.25;0.00;;;;;;;;5043361;28;45592;-76
2021/12/05 04:10:15;;;;;;;;;0.00;0.00;;;;;;;;5050359;28;45472;-76
2021/12/05 04:12:40;;;;;;;;;1.00;0.00;;;;;;;;5039405;28;45382;-76
2021/12/05 04:15:06;;;;;;;;;0.00;0.00;;;;;;;;5048616;28;45669;-75
2021/12/05 04:17:32;;;;;;;;;0.00;0.00;;;;;;;;5048804;28;45465;-76
2021/12/05 04:19:57;;;;;;;;;0.00;0.00;;;;;;;;5047280;28;45533;-75
2021/12/05 04:22:22;;;;;;;;;0.00;0.00;;;;;;;;5038667;28;45672;-76
2021/12/05 04:24:47;;;;;;;;;1.00;0.00;;;;;;;;5036982;28;45477;-76
2021/12/05 04:27:13;;;;;;;;;0.75;0.00;;;;;;;;5039288;28;45563;-75
2021/12/05 04:29:38;;;;;;;;;0.00;0.00;;;;;;;;5038804;28;46087;-76
2021/12/05 04:32:04;;;;;;;;;1.00;0.00;;;;;;;;5039071;28;45256;-75
2021/12/05 04:34:30;;;;;;;;;0.00;0.00;;;;;;;;5038219;28;45386;-76
2021/12/05 04:36:56;;;;;;;;;0.00;0.00;;;;;;;;5047244;28;45430;-76
2021/12/05 04:39:22;;;;;;;;;0.00;0.00;;;;;;;;5028583;28;45451;-75
2021/12/05 04:41:47;;;;;;;;;0.00;0.00;;;;;;;;5055557;28;45534;-75
2021/12/05 04:44:12;;;;;;;;;0.00;0.00;;;;;;;;5057470;28;44779;-76
2021/12/05 04:46:37;;;;;;;;;0.00;0.00;;;;;;;;5043447;28;45290;-76
2021/12/05 04:49:03;;;;;;;;;0.00;0.00;;;;;;;;5034812;28;46192;-76
2021/12/05 04:51:32;;;;;;;;;0.00;0.00;;;;;;;;5040631;28;45419;-76
2021/12/05 04:53:57;;;;;;;;;0.00;0.00;;;;;;;;5037765;28;45430;-75
2021/12/05 04:56:23;;;;;;;;;0.00;0.00;;;;;;;;5037431;28;45573;-75
2021/12/05 04:58:48;;;;;;;;;0.50;0.00;;;;;;;;5041672;28;45532;-76
2021/12/05 05:01:14;;;;;;;;;0.75;0.00;;;;;;;;5050018;28;45418;-75
2021/12/05 05:03:39;;;;;;;;;1.50;0.00;;;;;;;;5052244;28;45398;-75
2021/12/05 05:06:13;;;;;;;;;0.00;0.00;;;;;;;;5042648;28;45774;-76
2021/12/05 05:08:39;;;;;;;;;0.00;0.00;;;;;;;;5039907;28;45523;-75
2021/12/05 05:11:06;;;;;;;;;0.00;0.00;;;;;;;;5036119;28;45309;-76
2021/12/05 05:13:32;;;;;;;;;1.00;0.00;;;;;;;;5037452;28;45340;-76
2021/12/05 05:15:58;;;;;;;;;0.00;0.00;;;;;;;;5032969;28;45864;-75
2021/12/05 05:18:29;;;;;;;;;0.25;0.00;;;;;;;;5053440;28;45904;-75
2021/12/05 05:21:07;;;;;;;;;0.00;0.00;;;;;;;;5047546;28;45369;-76
2021/12/05 05:29:03;;;;;;;;;0.75;0.00;;;;;;;;5037907;28;45682;-76
2021/12/05 05:47:52;;;;;;;;;0.00;0.00;;;;;;;;5038639;28;45444;-76
2021/12/05 05:50:19;;;;;;;;;0.00;0.00;;;;;;;;5043395;28;46045;-76
2021/12/05 05:52:45;;;;;;;;;0.00;0.00;;;;;;;;5037740;28;45303;-77
2021/12/05 05:55:11;;;;;;;;;0.00;0.00;;;;;;;;5034305;28;45446;-76
2021/12/05 05:57:48;;;;;;;;;0.00;0.00;;;;;;;;5039210;28;45298;-76
2021/12/05 06:00:19;;;;;;;;;0.00;0.00;;;;;;;;5031928;28;45461;-76
2021/12/05 06:05:29;;;;;;;;;0.00;0.00;;;;;;;;5037791;28;45339;-76
2021/12/05 06:07:54;;;;;;;;;0.00;0.00;;;;;;;;5036683;28;45453;-76
2021/12/05 06:10:22;;;;;;;;;1.50;0.00;;;;;;;;5048410;28;45359;-75
2021/12/05 06:12:48;;;;;;;;;0.00;0.00;;;;;;;;5034326;28;45972;-76
2021/12/05 06:15:14;;;;;;;;;0.00;0.00;;;;;;;;5050159;28;45467;-75
2021/12/05 06:17:40;;;;;;;;;0.00;0.00;;;;;;;;5038181;28;45628;-76
2021/12/05 06:20:09;;;;;;;;;0.00;0.00;;;;;;;;5036369;28;46202;-76
2021/12/05 06:22:35;;;;;;;;;0.00;0.00;;;;;;;;5042368;28;45899;-77
2021/12/05 06:25:01;;;;;;;;;0.00;0.00;;;;;;;;5033563;28;45400;-76
2021/12/05 06:27:26;;;;;;;;;0.00;0.00;;;;;;;;5042623;28;45581;-76
2021/12/05 06:30:00;;;;;;;;;0.00;0.00;;;;;;;;5046601;28;45425;-77
2021/12/05 06:38:32;;;;;;;;;0.00;0.00;;;;;;;;5034618;28;45767;-76
2021/12/05 06:46:10;;;;;;;;;0.00;0.00;;;;;;;;5032690;28;45515;-75
2021/12/05 06:48:36;;;;;;;;;0.00;0.00;;;;;;;;5049216;28;45425;-76
2021/12/05 06:51:01;;;;;;;;;0.00;0.00;;;;;;;;5045181;28;45260;-76
2021/12/05 06:53:26;;;;;;;;;0.00;0.00;;;;;;;;5039878;28;45342;-77
2021/12/05 06:55:51;;;;;;;;;0.00;0.00;;;;;;;;5037098;28;45292;-76
2021/12/05 06:58:17;;;;;;;;;1.00;1.00;;;;;;;;5037530;28;45526;-76
2021/12/05 07:00:42;;;;;;;;;1.00;1.00;;;;;;;;5036391;28;45463;-77
2021/12/05 07:03:08;;;;;;;;;0.00;0.00;;;;;;;;5047729;28;45294;-76
2021/12/05 07:08:10;;;;;;;;;0.75;0.00;;;;;;;;5034718;28;45549;-77
2021/12/05 07:10:45;;;;;;;;;1.00;0.00;;;;;;;;5035434;28;46200;-76
2021/12/05 07:26:20;;;;;;;;;0.00;0.00;;;;;;;;5043786;28;45502;-76
2021/12/05 07:42:27;;;;;;;;;0.00;0.00;;;;;;;;5041729;28;45457;-77
2021/12/05 07:44:53;;;;;;;;;1.00;0.00;;;;;;;;5043853;28;45515;-76
2021/12/05 07:47:22;;;;;;;;;1.00;0.00;;;;;;;;5048887;28;45561;-76
2021/12/05 07:49:48;;;;;;;;;0.00;0.00;;;;;;;;5024164;28;45338;-76
2021/12/05 07:52:18;;;;;;;;;0.00;0.00;;;;;;;;5035925;28;45916;-76
2021/12/05 07:54:47;;;;;;;;;0.00;0.00;;;;;;;;5038878;28;45832;-76
2021/12/05 07:57:19;;;;;;;;;0.00;0.00;;;;;;;;5041754;28;45256;-77
2021/12/05 08:16:30;;;;;;;;;0.00;0.00;;;;;;;;5035423;28;46032;-75
2021/12/05 08:18:45;;;;;;;;;0.00;0.00;;;;;;;;5046201;28;45547;-76
2021/12/05 08:21:11;;;;;;;;;0.00;0.00;;;;;;;;5043286;28;45614;-75
2021/12/05 08:23:37;;;;;;;;;1.00;0.00;;;;;;;;5043364;28;45817;-76
2021/12/05 08:26:07;;;;;;;;;2.00;0.00;;;;;;;;5046356;28;45619;-76
2021/12/05 08:31:31;;;;;;;;;0.00;0.00;;;;;;;;5033310;28;45413;-75
2021/12/05 08:45:40;;;;;;;;;0.50;0.50;;;;;;;;5027990;28;45448;-75
2021/12/05 09:26:07;;;;;;;;;1.00;1.00;;;;;;;;4995746;28;45397;-76
2021/12/05 09:29:04;;;;;;;;;1.25;1.25;;;;;;;;4984582;28;46518;-76
2021/12/05 09:40:06;;;;;;;;;4.00;2.00;;;;;;;;4997953;28;45817;-78
2021/12/05 10:18:43;;;;;;;;;3.00;1.00;;;;;;;;4951848;28;45493;-74
2021/12/05 10:34:54;;;;;;;;;2.00;2.00;;;;;;;;4952680;28;45524;-74
2021/12/05 10:37:23;;;;;;;;;2.00;2.00;;;;;;;;4958428;28;45862;-74
2021/12/05 10:40:00;;;;;;;;;1.00;1.00;;;;;;;;5013325;28;45394;-74
2021/12/05 10:42:40;;;;;;;;;2.00;1.00;;;;;;;;5038582;28;45577;-73
2021/12/05 10:45:07;;;;;;;;;1.00;1.00;;;;;;;;5039967;28;45508;-74
2021/12/05 10:47:45;;;;;;;;;1.00;1.00;;;;;;;;5022670;28;45742;-74
2021/12/05 10:50:30;;;;;;;;;2.50;0.75;;;;;;;;5028163;28;45494;-74
2021/12/05 10:53:14;;;;;;;;;3.00;0.25;;;;;;;;5023622;28;45418;-74
2021/12/05 10:55:40;;;;;;;;;2.50;1.00;;;;;;;;5029448;28;46552;-74
2021/12/05 10:58:05;;;;;;;;;1.00;1.00;;;;;;;;5017748;28;45354;-74
2021/12/05 11:00:30;;;;;;;;;1.00;1.00;;;;;;;;5023404;28;45771;-74
2021/12/05 11:03:13;;;;;;;;;1.50;1.50;;;;;;;;5029615;28;45462;-72
2021/12/05 11:05:39;;;;;;;;;1.00;0.50;;;;;;;;5027787;28;45550;-74
2021/12/05 11:08:24;;;;;;;;;1.00;0.75;;;;;;;;5023079;28;45439;-74
2021/12/05 11:10:50;;;;;;;;;1.50;1.00;;;;;;;;5022783;28;45423;-73
2021/12/05 11:13:28;;;;;;;;;2.33;1.00;;;;;;;;5029994;28;45431;-73
2021/12/05 11:15:53;;;;;;;;;1.75;1.50;;;;;;;;5047382;28;46467;-73
2021/12/05 11:18:37;;;;;;;;;3.75;2.00;;;;;;;;5025654;28;45402;-74
2021/12/05 11:21:23;;;;;;;;;1.00;1.00;;;;;;;;5027106;28;45474;-73
2021/12/05 11:24:10;;;;;;;;;2.75;1.75;;;;;;;;5043375;28;45667;-74
2021/12/05 11:26:36;;;;;;;;;3.00;1.25;;;;;;;;5042246;28;46163;-74
2021/12/05 11:29:01;;;;;;;;;1.00;1.00;;;;;;;;5039241;28;47369;-73
2021/12/05 11:31:28;;;;;;;;;2.00;2.00;;;;;;;;5038188;28;45724;-73
2021/12/05 11:33:55;;;;;;;;;1.00;1.00;;;;;;;;5036758;28;45335;-73
2021/12/05 11:36:25;;;;;;;;;1.00;1.00;;;;;;;;5044269;28;45508;-74
2021/12/05 11:38:50;;;;;;;;;4.75;2.00;;;;;;;;5039159;28;45631;-74
2021/12/05 11:41:20;;;;;;;;;2.00;1.00;;;;;;;;5038199;28;45445;-73
2021/12/05 11:43:47;;;;;;;;;2.75;2.75;;;;;;;;5041778;28;45546;-73
2021/12/05 11:46:17;;;;;;;;;0.75;0.75;;;;;;;;5034730;28;47875;-73
2021/12/05 11:48:48;;;;;;;;;3.25;2.50;;;;;;;;5042799;28;45886;-73
2021/12/05 11:51:36;;;;;;;;;1.75;1.75;;;;;;;;5040912;28;45502;-73
2021/12/05 11:54:20;;;;;;;;;2.00;1.00;;;;;;;;4973446;28;45839;-73
2021/12/05 11:56:50;;;;;;;;;1.25;1.00;;;;;;;;4974934;28;45984;-73
2021/12/05 11:59:30;;;;;;;;;4.25;2.00;;;;;;;;4973918;28;45513;-71
2021/12/05 12:02:01;;;;;;;;;4.75;2.50;;;;;;;;4974807;28;45903;-72
2021/12/05 12:04:37;;;;;;;;;6.00;2.00;;;;;;;;4975356;28;45552;-72
2021/12/05 12:07:08;;;;;;;;;2.00;0.75;;;;;;;;4973627;28;46699;-72
2021/12/05 12:09:33;;;;;;;;;1.00;1.00;;;;;;;;4985936;28;45572;-72
2021/12/05 12:11:59;;;;;;;;;5.00;1.00;;;;;;;;4976460;28;45397;-71
2021/12/05 12:14:24;;;;;;;;;3.50;2.00;;;;;;;;4974925;28;45662;-71
2021/12/05 12:16:51;;;;;;;;;1.00;1.00;;;;;;;;4981983;28;45507;-72
2021/12/05 12:19:21;;;;;;;;;0.75;0.75;;;;;;;;4971663;28;45768;-72
2021/12/05 12:21:48;;;;;;;;;1.00;0.00;;;;;;;;4978303;28;45552;-72
2021/12/05 12:24:15;;;;;;;;;0.75;0.75;;;;;;;;4975807;28;45400;-72
2021/12/05 12:26:41;;;;;;;;;0.00;0.00;;;;;;;;4977309;28;47057;-72
2021/12/05 12:29:08;;;;;;;;;1.00;1.00;;;;;;;;4975906;28;45554;-72
2021/12/05 12:31:36;;;;;;;;;0.75;0.00;;;;;;;;5012989;28;45391;-72
2021/12/05 12:34:06;;;;;;;;;2.00;1.00;;;;;;;;5041203;28;46649;-72
2021/12/05 12:36:31;;;;;;;;;1.00;1.00;;;;;;;;5031298;28;46667;-72
2021/12/05 12:38:56;;;;;;;;;0.00;0.00;;;;;;;;5038214;28;45451;-72
2021/12/05 12:41:23;;;;;;;;;5.00;1.00;;;;;;;;5032615;28;45442;-73
2021/12/05 12:43:48;;;;;;;;;1.00;1.00;;;;;;;;5024811;28;45292;-72
2021/12/05 12:46:19;;;;;;;;;1.50;0.50;;;;;;;;5025107;28;45579;-73
2021/12/05 12:48:45;;;;;;;;;2.25;2.25;;;;;;;;5032268;28;45898;-72
2021/12/05 12:51:32;;;;;;;;;1.00;1.00;;;;;;;;5030816;28;45391;-72
2021/12/05 12:54:01;;;;;;;;;1.00;1.00;;;;;;;;5035394;28;45411;-72
2021/12/05 12:56:26;;;;;;;;;1.50;1.50;;;;;;;;5038183;28;46000;-72
2021/12/05 12:58:55;;;;;;;;;2.50;1.50;;;;;;;;5037647;28;45446;-73
2021/12/05 13:12:42;;;;;;;;;1.00;1.00;;;;;;;;5054277;28;45410;-72
2021/12/05 13:15:09;;;;;;;;;1.00;1.00;;;;;;;;5037377;28;45544;-72
2021/12/05 13:17:42;;;;;;;;;43.50;38.75;;;;;;;;5037591;28;46004;-72
2021/12/05 13:20:09;;;;;;;;;1.25;1.25;;;;;;;;5037437;28;45839;-72
2021/12/05 13:22:54;;;;;;;;;2.25;2.00;;;;;;;;5037870;28;45323;-72
2021/12/05 13:25:20;;;;;;;;;1.50;1.50;;;;;;;;5031193;28;45178;-72
2021/12/05 13:27:45;;;;;;;;;3.67;1.00;;;;;;;;5040158;28;46207;-72
2021/12/05 13:30:10;;;;;;;;;1.00;1.00;;;;;;;;5038439;28;45336;-72
2021/12/05 13:32:37;;;;;;;;;2.00;1.00;;;;;;;;5021861;28;45570;-72
2021/12/05 13:35:08;;;;;;;;;3.00;1.25;;;;;;;;5026905;28;45591;-72
2021/12/05 13:37:36;;;;;;;;;3.00;1.25;;;;;;;;5022070;28;45473;-72
2021/12/05 13:40:10;;;;;;;;;3.00;2.00;;;;;;;;5021340;28;45978;-72
2021/12/05 13:42:35;;;;;;;;;3.00;2.00;;;;;;;;5019096;28;45501;-72
2021/12/05 13:45:04;;;;;;;;;3.00;3.00;;;;;;;;5030320;28;45287;-72
2021/12/05 13:47:32;;;;;;;;;3.75;2.50;;;;;;;;5027089;28;45778;-72
2021/12/05 13:50:16;;;;;;;;;3.00;2.00;;;;;;;;5023543;28;45466;-72
2021/12/05 13:52:41;;;;;;;;;7.00;3.00;;;;;;;;5026115;28;45489;-72
2021/12/05 13:55:25;;;;;;;;;2.25;2.00;;;;;;;;5026324;28;45477;-72
2021/12/05 13:58:09;;;;;;;;;4.25;3.00;;;;;;;;5034936;28;46193;-72
2021/12/05 14:00:42;;;;;;;;;2.75;2.00;;;;;;;;5043776;28;45933;-72
2021/12/05 14:03:07;;;;;;;;;2.75;2.75;;;;;;;;5036241;28;45462;-72
2021/12/05 14:05:33;;;;;;;;;6.33;4.00;;;;;;;;5021289;28;45512;-72
2021/12/05 14:07:58;;;;;;;;;3.75;3.75;;;;;;;;5027125;28;46055;-72
2021/12/05 14:10:24;;;;;;;;;5.50;4.50;;;;;;;;5020898;28;45430;-72
2021/12/05 14:12:49;;;;;;;;;4.00;3.00;;;;;;;;5034972;28;45463;-72
2021/12/05 14:15:15;;;;;;;;;3.75;2.00;;;;;;;;5048691;28;45573;-72
2021/12/05 14:17:42;;;;;;;;;3.25;2.75;;;;;;;;5040680;28;47250;-72
2021/12/05 14:20:11;;;;;;;;;3.00;2.00;;;;;;;;5044116;28;45828;-72
2021/12/05 14:22:37;;;;;;;;;7.00;5.00;;;;;;;;5030077;28;45447;-72
2021/12/05 14:25:07;;;;;;;;;5.00;3.00;;;;;;;;5032724;28;45489;-72
2021/12/05 14:27:35;;;;;;;;;5.00;3.00;;;;;;;;5046124;28;46299;-72
2021/12/05 14:30:00;;;;;;;;;5.00;2.00;;;;;;;;5035789;28;46953;-72
2021/12/05 14:32:30;;;;;;;;;3.00;3.00;;;;;;;;5036581;28;45375;-72
2021/12/05 14:34:59;;;;;;;;;3.25;3.25;;;;;;;;5037506;28;45584;-72
2021/12/05 14:37:27;;;;;;;;;5.75;3.00;;;;;;;;5032928;28;47197;-72
2021/12/05 14:39:55;;;;;;;;;2.75;2.75;;;;;;;;5019514;28;47684;-72
2021/12/05 14:42:22;;;;;;;;;3.50;3.00;;;;;;;;5037408;28;45426;-72
2021/12/05 14:44:51;;;;;;;;;3.00;3.00;;;;;;;;5036964;28;45380;-72
2021/12/05 14:47:19;;;;;;;;;5.50;5.50;;;;;;;;5036586;28;45386;-72
2021/12/05 14:49:46;;;;;;;;;3.00;2.00;;;;;;;;5036858;28;45796;-72
2021/12/05 14:52:13;;;;;;;;;3.00;3.00;;;;;;;;5033808;28;45532;-72
2021/12/05 14:54:39;;;;;;;;;5.75;5.50;;;;;;;;5037380;28;45267;-72
2021/12/05 14:57:10;;;;;;;;;4.00;2.75;;;;;;;;5034911;28;45324;-72
2021/12/05 14:59:35;;;;;;;;;2.50;2.25;;;;;;;;5031413;28;45336;-72
2021/12/05 15:02:00;;;;;;;;;4.50;4.50;;;;;;;;5036456;28;45359;-72
2021/12/05 15:04:28;;;;;;;;;5.25;5.00;;;;;;;;5034777;28;45463;-72
2021/12/05 15:06:54;;;;;;;;;5.50;5.50;;;;;;;;5033599;28;46151;-72
2021/12/05 15:09:25;;;;;;;;;7.75;5.00;;;;;;;;5038608;28;45451;-72
2021/12/05 15:11:55;;;;;;;;;3.75;3.25;;;;;;;;5035893;28;45385;-72
2021/12/05 15:14:21;;;;;;;;;6.50;6.50;;;;;;;;5032001;28;45287;-72
2021/12/05 15:16:53;;;;;;;;;5.75;5.50;;;;;;;;5044494;28;45425;-72
2021/12/05 15:19:19;;;;;;;;;6.00;3.00;;;;;;;;5023101;28;45446;-72
2021/12/05 15:21:44;;;;;;;;;5.00;4.50;;;;;;;;5035879;28;45362;-72
2021/12/05 15:24:17;;;;;;;;;11.00;6.00;;;;;;;;5046964;28;45460;-72
2021/12/05 15:26:42;;;;;;;;;7.00;5.00;;;;;;;;5038535;28;45600;-72
2021/12/05 15:29:07;;;;;;;;;6.00;3.00;;;;;;;;5036251;28;45307;-72
2021/12/05 15:31:34;;;;;;;;;4.50;4.00;;;;;;;;5037260;28;45678;-72
2021/12/05 15:34:00;;;;;;;;;3.00;3.00;;;;;;;;5036005;28;45413;-72
2021/12/05 15:36:34;;;;;;;;;3.00;3.00;;;;;;;;5040257;28;45908;-72
2021/12/05 15:39:09;;;;;;;;;6.75;3.00;;;;;;;;5039577;28;45619;-72
2021/12/05 15:41:34;;;;;;;;;4.50;2.00;;;;;;;;5038425;28;45279;-72
2021/12/05 15:44:00;;;;;;;;;3.00;2.00;;;;;;;;5039500;28;45540;-72
2021/12/05 15:46:27;;;;;;;;;3.00;2.00;;;;;;;;5034500;28;46960;-72
2021/12/05 15:48:54;;;;;;;;;6.50;2.00;;;;;;;;5042983;28;45578;-72
2021/12/05 15:51:21;;;;;;;;;3.00;3.00;;;;;;;;5041783;28;45505;-72
2021/12/05 15:53:47;;;;;;;;;5.00;2.75;;;;;;;;5034640;28;45481;-72
2021/12/05 15:56:14;;;;;;;;;5.75;2.00;;;;;;;;5039308;28;45793;-72
2021/12/05 15:58:40;;;;;;;;;3.25;1.75;;;;;;;;5039441;28;45471;-72
2021/12/05 16:01:14;;;;;;;;;2.00;2.00;;;;;;;;5035153;28;45705;-72
2021/12/05 16:03:44;;;;;;;;;6.00;5.00;;;;;;;;5046058;28;45215;-72
2021/12/05 16:06:10;;;;;;;;;6.50;3.00;;;;;;;;5040092;28;46253;-72
2021/12/05 16:08:36;;;;;;;;;2.75;2.00;;;;;;;;5035139;28;45458;-72
2021/12/05 16:11:02;;;;;;;;;5.00;5.00;;;;;;;;5031350;28;45598;-72
2021/12/05 16:13:38;;;;;;;;;2.75;2.00;;;;;;;;5035423;28;45558;-72
2021/12/05 16:16:12;;;;;;;;;7.75;3.50;;;;;;;;5017335;28;45994;-72
2021/12/05 16:18:37;;;;;;;;;3.00;1.50;;;;;;;;5032123;28;45567;-72
2021/12/05 16:21:13;;;;;;;;;2.75;2.75;;;;;;;;5030618;28;45385;-72
2021/12/05 16:23:38;;;;;;;;;7.25;7.25;;;;;;;;5030846;28;45304;-72
2021/12/05 16:26:09;;;;;;;;;4.00;3.00;;;;;;;;5029881;28;46271;-72
2021/12/05 16:28:34;;;;;;;;;6.00;3.00;;;;;;;;5032305;28;45858;-72
2021/12/05 16:31:05;;;;;;;;;5.33;3.00;;;;;;;;5033517;28;45556;-73
2021/12/05 16:33:31;;;;;;;;;3.00;2.00;;;;;;;;5034348;28;45285;-74
2021/12/05 16:35:58;;;;;;;;;5.00;5.00;;;;;;;;5033577;28;45951;-73
2021/12/05 16:38:23;;;;;;;;;3.50;3.50;;;;;;;;5037467;28;45497;-73
2021/12/05 16:40:52;;;;;;;;;2.50;2.50;;;;;;;;5028185;28;45412;-73
2021/12/05 16:43:17;;;;;;;;;2.25;2.25;;;;;;;;5032365;28;45338;-73
2021/12/05 16:45:42;;;;;;;;;2.33;1.00;;;;;;;;5032238;28;45505;-73
2021/12/05 16:48:07;;;;;;;;;5.00;2.25;;;;;;;;5042045;28;45651;-74
2021/12/05 16:50:33;;;;;;;;;2.67;1.67;;;;;;;;5032321;28;45204;-73
2021/12/05 16:52:58;;;;;;;;;4.33;2.33;;;;;;;;5034141;28;45382;-73
2021/12/05 16:55:27;;;;;;;;;3.50;2.25;;;;;;;;5030644;28;46042;-73
2021/12/05 16:58:08;;;;;;;;;2.75;2.75;;;;;;;;5017869;28;45482;-73
2021/12/05 17:00:36;;;;;;;;;3.50;3.00;;;;;;;;5032154;28;45624;-73
2021/12/05 17:03:05;;;;;;;;;5.00;2.25;;;;;;;;5036653;28;45411;-73
2021/12/05 17:05:33;;;;;;;;;3.50;3.50;;;;;;;;5033565;28;45536;-73
2021/12/05 17:08:13;;;;;;;;;4.25;3.00;;;;;;;;5037863;28;45372;-73
2021/12/05 17:10:59;;;;;;;;;7.00;5.75;;;;;;;;5029453;28;45454;-73
2021/12/05 17:13:26;;;;;;;;;3.00;3.00;;;;;;;;5031945;28;46023;-73
2021/12/05 17:15:58;;;;;;;;;6.00;6.00;;;;;;;;5015293;28;46242;-73
2021/12/05 17:18:36;;;;;;;;;6.25;5.00;;;;;;;;5038090;28;45789;-73
2021/12/05 17:21:04;;;;;;;;;5.50;3.00;;;;;;;;5032190;28;45625;-73
2021/12/05 17:23:34;;;;;;;;;5.00;5.00;;;;;;;;5036910;28;45478;-73
2021/12/05 17:26:08;;;;;;;;;3.00;2.75;;;;;;;;5033299;28;45528;-72
2021/12/05 17:28:51;;;;;;;;;5.00;4.50;;;;;;;;5036180;28;46047;-73
2021/12/05 17:31:21;;;;;;;;;10.25;8.75;;;;;;;;5034776;28;45633;-72
2021/12/05 17:33:50;;;;;;;;;14.50;14.25;;;;;;;;5050268;28;45192;-74
2021/12/05 17:36:15;;;;;;;;;4.50;4.50;;;;;;;;5039520;28;46206;-72
2021/12/05 17:38:40;;;;;;;;;39.33;33.33;;;;;;;;5037885;28;45624;-72
2021/12/05 17:41:06;;;;;;;;;9.75;7.00;;;;;;;;5037693;28;45256;-72
2021/12/05 17:43:31;;;;;;;;;6.25;6.25;;;;;;;;5035881;28;45368;-72
2021/12/05 17:45:56;;;;;;;;;6.00;5.25;;;;;;;;5041364;28;45557;-72
2021/12/05 17:48:22;;;;;;;;;15.00;11.00;;;;;;;;5044243;28;45499;-73
2021/12/05 17:50:52;;;;;;;;;5.00;5.00;;;;;;;;5038052;28;45370;-73
2021/12/05 17:53:18;;;;;;;;;6.75;6.75;;;;;;;;5036950;28;45633;-73
2021/12/05 17:55:46;;;;;;;;;9.75;5.75;;;;;;;;5037075;28;45278;-73
2021/12/05 17:58:39;;;;;;;;;8.50;5.00;;;;;;;;5039833;28;45631;-73
2021/12/05 18:03:51;;;;;;;;;7.75;5.50;;;;;;;;5031737;28;45355;-73
2021/12/05 18:06:16;;;;;;;;;11.50;10.75;;;;;;;;5019574;28;46503;-73
2021/12/05 18:08:42;;;;;;;;;10.00;7.75;;;;;;;;5032560;28;45411;-73
2021/12/05 18:11:12;;;;;;;;;21.67;15.67;;;;;;;;5023894;28;45474;-73
2021/12/05 18:13:40;;;;;;;;;22.00;15.50;;;;;;;;5014780;28;45515;-73
2021/12/05 18:16:12;;;;;;;;;9.00;9.00;;;;;;;;5025421;28;48418;-71
2021/12/05 18:18:38;;;;;;;;;14.25;9.00;;;;;;;;5046143;28;45493;-73
2021/12/05 18:21:05;;;;;;;;;69.25;53.00;;;;;;;;5028885;28;45587;-72
2021/12/05 18:23:30;;;;;;;;;25.25;22.50;;;;;;;;5026044;28;45474;-72
2021/12/05 18:25:56;;;;;;;;;20.25;15.75;;;;;;;;5026580;28;45410;-72
2021/12/05 18:28:21;;;;;;;;;16.25;13.75;;;;;;;;5031853;28;45581;-72
2021/12/05 18:30:47;;;;;;;;;37.67;32.67;;;;;;;;5029611;28;45598;-72
2021/12/05 18:33:13;;;;;;;;;15.50;12.50;;;;;;;;5027313;28;45465;-72
2021/12/05 18:35:39;;;;;;;;;17.00;15.75;;;;;;;;5041452;28;45515;-72
2021/12/05 18:38:07;;;;;;;;;13.75;10.75;;;;;;;;5048249;28;44792;-72
2021/12/05 18:40:34;;;;;;;;;5.75;5.75;;;;;;;;5032836;28;45654;-72
2021/12/05 18:42:59;;;;;;;;;10.25;9.75;;;;;;;;5019546;28;45315;-72
2021/12/05 18:45:28;;;;;;;;;6.00;5.00;;;;;;;;5018188;28;46190;-72
2021/12/05 18:47:53;;;;;;;;;2.75;2.75;;;;;;;;5028207;28;45490;-72
2021/12/05 18:50:19;;;;;;;;;3.00;3.00;;;;;;;;5021293;28;45511;-72
2021/12/05 18:52:44;;;;;;;;;14.75;14.00;;;;;;;;5021238;28;45614;-72
2021/12/05 18:55:11;;;;;;;;;7.00;6.00;;;;;;;;5028764;28;45896;-73
2021/12/05 18:57:37;;;;;;;;;7.25;6.00;;;;;;;;5034887;28;45917;-73
2021/12/05 19:00:13;;;;;;;;;6.50;6.50;;;;;;;;5025399;28;45490;-73
2021/12/05 19:05:33;;;;;;;;;4.50;4.50;;;;;;;;5022493;28;45706;-73
2021/12/05 19:08:17;;;;;;;;;6.50;5.25;;;;;;;;5025462;28;45495;-73
2021/12/05 19:13:26;;;;;;;;;11.50;10.25;;;;;;;;5017870;28;45921;-72
2021/12/05 19:15:53;;;;;;;;;11.00;10.00;;;;;;;;5025555;28;45525;-74
2021/12/05 19:18:18;;;;;;;;;10.00;8.00;;;;;;;;5033708;28;45926;-72
2021/12/05 19:20:44;;;;;;;;;11.50;10.00;;;;;;;;5021156;28;45459;-73
2021/12/05 19:23:10;;;;;;;;;15.00;14.00;;;;;;;;5018991;28;45961;-73
2021/12/05 19:25:36;;;;;;;;;12.00;11.00;;;;;;;;5019722;28;46635;-73
2021/12/05 19:28:02;;;;;;;;;15.25;11.50;;;;;;;;5028324;28;46066;-73
2021/12/05 19:30:39;;;;;;;;;13.00;10.25;;;;;;;;5030078;28;45535;-72
2021/12/05 19:33:05;;;;;;;;;9.50;8.25;;;;;;;;5036156;28;45485;-72
2021/12/05 19:35:32;;;;;;;;;89.00;65.75;;;;;;;;5023961;28;45470;-72
2021/12/05 19:37:57;;;;;;;;;18.25;13.50;;;;;;;;5022316;28;45430;-73
2021/12/05 19:40:23;;;;;;;;;12.67;8.67;;;;;;;;5036765;28;45545;-72
2021/12/05 19:42:50;;;;;;;;;28.75;22.00;;;;;;;;5030910;28;45391;-72
2021/12/05 19:45:15;;;;;;;;;9.00;7.00;;;;;;;;5033022;28;47455;-72
2021/12/05 19:47:40;;;;;;;;;13.00;7.00;;;;;;;;5030552;28;45390;-72
2021/12/05 19:50:08;;;;;;;;;7.75;6.00;;;;;;;;5027507;28;45513;-72
2021/12/05 19:52:33;;;;;;;;;8.75;6.50;;;;;;;;5017746;28;45588;-72
2021/12/05 19:54:58;;;;;;;;;10.50;9.75;;;;;;;;5034567;28;46488;-72
2021/12/05 19:57:24;;;;;;;;;10.00;7.25;;;;;;;;5018193;28;45406;-72
2021/12/05 19:59:49;;;;;;;;;11.67;9.33;;;;;;;;5018906;28;45511;-72
2021/12/05 20:02:14;;;;;;;;;26.67;23.00;;;;;;;;5018543;28;45826;-72
2021/12/05 20:04:40;;;;;;;;;9.25;9.25;;;;;;;;5018571;28;45533;-72
2021/12/05 20:07:05;;;;;;;;;11.50;7.00;;;;;;;;5045367;28;45451;-72
2021/12/05 20:09:30;;;;;;;;;17.25;12.50;;;;;;;;5023938;28;45484;-72
2021/12/05 20:11:57;;;;;;;;;12.67;8.33;;;;;;;;5030197;28;45685;-72
2021/12/05 20:14:24;;;;;;;;;13.00;10.00;;;;;;;;5024452;28;46126;-72
2021/12/05 20:16:49;;;;;;;;;13.00;10.00;;;;;;;;5031974;28;45386;-72
2021/12/05 20:19:14;;;;;;;;;15.00;12.67;;;;;;;;5015256;28;48110;-72
2021/12/05 20:21:42;;;;;;;;;15.75;15.50;;;;;;;;5037650;28;45515;-72
2021/12/05 20:24:08;;;;;;;;;15.75;12.00;;;;;;;;5046137;28;48275;-72